sensor_id;sensor_type;location;lat;lon;timestamp;pressure;altitude;pressure_sealevel;temperature;humidity
58473;BME280;44775;51.564;5.460;2023-05-22T00:00:05;101201.16;;;15.38;100.00
58473;BME280;44775;51.564;5.460;2023-05-22T00:02:34;101218.06;;;15.68;100.00
58473;BME280;44775;51.564;5.460;2023-05-22T00:05:10;101207.28;;;15.68;100.00
58473;BME280;44775;51.564;5.460;2023-05-22T00:07:38;101206.59;;;15.80;100.00
58473;BME280;44775;51.564;5.460;2023-05-22T00:10:05;101215.56;;;15.88;100.00
58473;BME280;44775;51.564;5.460;2023-05-22T00:12:30;101203.47;;;15.62;100.00
58473;BME280;44775;51.564;5.460;2023-05-22T00:14:55;101203.56;;;15.69;100.00
58473;BME280;44775;51.564;5.460;2023-05-22T00:17:22;101206.69;;;15.51;100.00
58473;BME280;44775;51.564;5.460;2023-05-22T00:19:47;101202.81;;;15.39;100.00
58473;BME280;44775;51.564;5.460;2023-05-22T00:22:13;101200.66;;;15.27;100.00
58473;BME280;44775;51.564;5.460;2023-05-22T00:24:38;101201.09;;;15.31;100.00
58473;BME280;44775;51.564;5.460;2023-05-22T00:27:03;101210.22;;;15.51;100.00
58473;BME280;44775;51.564;5.460;2023-05-22T00:29:29;101200.53;;;15.35;100.00
58473;BME280;44775;51.564;5.460;2023-05-22T00:31:55;101196.06;;;15.43;100.00
58473;BME280;44775;51.564;5.460;2023-05-22T00:34:20;101199.56;;;15.43;100.00
58473;BME280;44775;51.564;5.460;2023-05-22T00:36:45;101197.72;;;15.22;100.00
58473;BME280;44775;51.564;5.460;2023-05-22T00:39:11;101193.97;;;15.23;100.00
58473;BME280;44775;51.564;5.460;2023-05-22T00:41:36;101193.53;;;15.20;100.00
58473;BME280;44775;51.564;5.460;2023-05-22T00:44:02;101195.66;;;15.24;100.00
58473;BME280;44775;51.564;5.460;2023-05-22T00:46:28;101195.66;;;15.24;100.00
58473;BME280;44775;51.564;5.460;2023-05-22T00:48:53;101182.06;;;15.32;100.00
58473;BME280;44775;51.564;5.460;2023-05-22T00:51:21;101184.81;;;15.18;100.00
58473;BME280;44775;51.564;5.460;2023-05-22T00:53:47;101188.84;;;15.07;100.00
58473;BME280;44775;51.564;5.460;2023-05-22T00:56:13;101190.50;;;15.08;100.00
58473;BME280;44775;51.564;5.460;2023-05-22T00:58:39;101192.72;;;15.04;100.00
58473;BME280;44775;51.564;5.460;2023-05-22T01:01:06;101193.31;;;15.00;100.00
58473;BME280;44775;51.564;5.460;2023-05-22T01:03:35;101185.03;;;15.01;100.00
58473;BME280;44775;51.564;5.460;2023-05-22T01:06:02;101176.78;;;15.03;100.00
58473;BME280;44775;51.564;5.460;2023-05-22T01:08:27;101192.47;;;14.99;100.00
58473;BME280;44775;51.564;5.460;2023-05-22T01:11:03;101193.19;;;15.08;100.00
58473;BME280;44775;51.564;5.460;2023-05-22T01:13:55;101186.88;;;15.16;100.00
58473;BME280;44775;51.564;5.460;2023-05-22T01:16:33;101193.84;;;15.10;100.00
58473;BME280;44775;51.564;5.460;2023-05-22T01:19:11;101192.44;;;15.14;100.00
58473;BME280;44775;51.564;5.460;2023-05-22T01:22:08;101185.97;;;14.94;100.00
58473;BME280;44775;51.564;5.460;2023-05-22T01:33:08;101174.53;;;14.55;100.00
58473;BME280;44775;51.564;5.460;2023-05-22T01:35:37;101180.53;;;14.43;100.00
58473;BME280;44775;51.564;5.460;2023-05-22T01:38:04;101177.00;;;14.27;100.00
58473;BME280;44775;51.564;5.460;2023-05-22T01:40:31;101176.34;;;14.10;100.00
58473;BME280;44775;51.564;5.460;2023-05-22T01:42:57;101170.75;;;13.97;100.00
58473;BME280;44775;51.564;5.460;2023-05-22T01:45:22;101173.53;;;13.89;100.00
58473;BME280;44775;51.564;5.460;2023-05-22T01:47:48;101172.59;;;13.82;100.00
58473;BME280;44775;51.564;5.460;2023-05-22T01:50:13;101165.16;;;13.69;100.00
58473;BME280;44775;51.564;5.460;2023-05-22T01:55:51;101169.66;;;13.54;100.00
58473;BME280;44775;51.564;5.460;2023-05-22T02:00:50;101175.16;;;13.37;100.00
58473;BME280;44775;51.564;5.460;2023-05-22T02:03:21;101171.69;;;13.29;100.00
58473;BME280;44775;51.564;5.460;2023-05-22T02:05:50;101172.34;;;13.22;100.00
58473;BME280;44775;51.564;5.460;2023-05-22T02:08:19;101172.91;;;13.18;100.00
58473;BME280;44775;51.564;5.460;2023-05-22T02:10:45;101160.53;;;13.09;100.00
58473;BME280;44775;51.564;5.460;2023-05-22T02:13:11;101157.38;;;13.05;100.00
58473;BME280;44775;51.564;5.460;2023-05-22T02:15:36;101157.09;;;13.00;100.00
58473;BME280;44775;51.564;5.460;2023-05-22T02:18:02;101160.59;;;13.00;100.00
58473;BME280;44775;51.564;5.460;2023-05-22T02:20:28;101165.66;;;12.95;100.00
58473;BME280;44775;51.564;5.460;2023-05-22T02:22:53;101163.16;;;12.94;100.00
58473;BME280;44775;51.564;5.460;2023-05-22T02:25:18;101149.28;;;12.82;100.00
58473;BME280;44775;51.564;5.460;2023-05-22T02:27:45;101152.81;;;12.83;100.00
58473;BME280;44775;51.564;5.460;2023-05-22T02:30:12;101148.66;;;12.80;100.00
58473;BME280;44775;51.564;5.460;2023-05-22T02:32:39;101149.66;;;12.79;100.00
58473;BME280;44775;51.564;5.460;2023-05-22T02:35:05;101154.16;;;12.79;100.00
58473;BME280;44775;51.564;5.460;2023-05-22T02:37:30;101151.59;;;12.93;100.00
58473;BME280;44775;51.564;5.460;2023-05-22T02:39:56;101147.22;;;12.92;100.00
58473;BME280;44775;51.564;5.460;2023-05-22T02:42:22;101143.22;;;12.88;100.00
58473;BME280;44775;51.564;5.460;2023-05-22T02:44:47;101146.56;;;12.90;100.00
58473;BME280;44775;51.564;5.460;2023-05-22T02:47:12;101146.56;;;12.90;100.00
58473;BME280;44775;51.564;5.460;2023-05-22T02:49:37;101141.56;;;12.87;100.00
58473;BME280;44775;51.564;5.460;2023-05-22T02:52:03;101129.81;;;12.88;100.00
58473;BME280;44775;51.564;5.460;2023-05-22T02:54:28;101142.88;;;12.91;100.00
58473;BME280;44775;51.564;5.460;2023-05-22T02:56:53;101129.16;;;12.86;100.00
58473;BME280;44775;51.564;5.460;2023-05-22T02:59:19;101134.88;;;12.83;100.00
58473;BME280;44775;51.564;5.460;2023-05-22T03:01:44;101135.88;;;12.82;100.00
58473;BME280;44775;51.564;5.460;2023-05-22T03:04:12;101136.75;;;12.74;100.00
58473;BME280;44775;51.564;5.460;2023-05-22T03:06:38;101141.28;;;12.74;100.00
58473;BME280;44775;51.564;5.460;2023-05-22T03:09:04;101130.56;;;12.74;100.00
58473;BME280;44775;51.564;5.460;2023-05-22T03:11:30;101129.94;;;12.64;100.00
58473;BME280;44775;51.564;5.460;2023-05-22T03:13:56;101129.94;;;12.64;100.00
58473;BME280;44775;51.564;5.460;2023-05-22T03:16:21;101123.41;;;12.66;100.00
58473;BME280;44775;51.564;5.460;2023-05-22T03:18:48;101133.31;;;12.58;100.00
58473;BME280;44775;51.564;5.460;2023-05-22T03:21:14;101128.66;;;12.51;100.00
58473;BME280;44775;51.564;5.460;2023-05-22T03:23:39;101135.03;;;12.50;100.00
58473;BME280;44775;51.564;5.460;2023-05-22T03:26:05;101130.34;;;12.52;100.00
58473;BME280;44775;51.564;5.460;2023-05-22T03:28:30;101132.19;;;12.52;100.00
58473;BME280;44775;51.564;5.460;2023-05-22T03:30:55;101133.69;;;12.55;100.00
58473;BME280;44775;51.564;5.460;2023-05-22T03:33:20;101136.41;;;12.46;100.00
58473;BME280;44775;51.564;5.460;2023-05-22T03:35:46;101138.41;;;12.44;100.00
58473;BME280;44775;51.564;5.460;2023-05-22T03:38:11;101119.34;;;12.39;100.00
58473;BME280;44775;51.564;5.460;2023-05-22T03:40:36;101133.22;;;12.43;100.00
58473;BME280;44775;51.564;5.460;2023-05-22T03:43:01;101121.88;;;12.33;100.00
58473;BME280;44775;51.564;5.460;2023-05-22T03:45:27;101131.94;;;12.31;100.00
58473;BME280;44775;51.564;5.460;2023-05-22T03:47:52;101132.59;;;12.33;100.00
58473;BME280;44775;51.564;5.460;2023-05-22T03:50:17;101127.94;;;12.26;100.00
58473;BME280;44775;51.564;5.460;2023-05-22T03:52:43;101132.63;;;12.24;100.00
58473;BME280;44775;51.564;5.460;2023-05-22T03:55:08;101126.47;;;12.16;100.00
58473;BME280;44775;51.564;5.460;2023-05-22T03:57:33;101128.81;;;12.11;100.00
58473;BME280;44775;51.564;5.460;2023-05-22T03:59:59;101125.97;;;12.12;100.00
58473;BME280;44775;51.564;5.460;2023-05-22T04:02:31;101127.97;;;12.10;100.00
58473;BME280;44775;51.564;5.460;2023-05-22T04:04:56;101118.44;;;12.08;100.00
58473;BME280;44775;51.564;5.460;2023-05-22T04:07:21;101119.97;;;12.02;100.00
58473;BME280;44775;51.564;5.460;2023-05-22T04:09:46;101121.63;;;12.03;100.00
58473;BME280;44775;51.564;5.460;2023-05-22T04:12:12;101131.34;;;12.04;100.00
58473;BME280;44775;51.564;5.460;2023-05-22T04:14:37;101126.16;;;12.02;100.00
58473;BME280;44775;51.564;5.460;2023-05-22T04:17:02;101127.34;;;12.00;100.00
58473;BME280;44775;51.564;5.460;2023-05-22T04:19:28;101133.16;;;12.20;100.00
58473;BME280;44775;51.564;5.460;2023-05-22T04:21:54;101126.47;;;12.08;100.00
58473;BME280;44775;51.564;5.460;2023-05-22T04:24:19;101132.31;;;12.19;100.00
58473;BME280;44775;51.564;5.460;2023-05-22T04:26:47;101140.50;;;12.26;100.00
58473;BME280;44775;51.564;5.460;2023-05-22T04:29:13;101139.31;;;12.28;100.00
58473;BME280;44775;51.564;5.460;2023-05-22T04:31:38;101144.50;;;12.30;100.00
58473;BME280;44775;51.564;5.460;2023-05-22T04:34:04;101150.34;;;12.34;100.00
58473;BME280;44775;51.564;5.460;2023-05-22T04:36:29;101146.16;;;12.31;100.00
58473;BME280;44775;51.564;5.460;2023-05-22T04:38:55;101152.88;;;12.35;100.00
58473;BME280;44775;51.564;5.460;2023-05-22T04:41:20;101161.25;;;12.32;100.00
58473;BME280;44775;51.564;5.460;2023-05-22T04:43:52;101149.50;;;12.33;100.00
58473;BME280;44775;51.564;5.460;2023-05-22T04:46:18;101162.25;;;12.31;100.00
58473;BME280;44775;51.564;5.460;2023-05-22T04:48:43;101156.72;;;12.33;100.00
58473;BME280;44775;51.564;5.460;2023-05-22T04:51:09;101166.22;;;12.43;100.00
58473;BME280;44775;51.564;5.460;2023-05-22T04:53:34;101166.22;;;12.43;100.00
58473;BME280;44775;51.564;5.460;2023-05-22T04:56:00;101156.81;;;12.47;100.00
58473;BME280;44775;51.564;5.460;2023-05-22T04:58:43;101168.84;;;12.60;100.00
58473;BME280;44775;51.564;5.460;2023-05-22T05:01:09;101169.81;;;12.67;100.00
58473;BME280;44775;51.564;5.460;2023-05-22T05:03:34;101162.53;;;12.84;100.00
58473;BME280;44775;51.564;5.460;2023-05-22T05:06:00;101158.13;;;12.91;100.00
58473;BME280;44775;51.564;5.460;2023-05-22T05:08:25;101166.13;;;12.99;100.00
58473;BME280;44775;51.564;5.460;2023-05-22T05:10:50;101175.81;;;13.08;100.00
58473;BME280;44775;51.564;5.460;2023-05-22T05:13:15;101163.06;;;13.10;100.00
58473;BME280;44775;51.564;5.460;2023-05-22T05:15:41;101169.19;;;13.19;100.00
58473;BME280;44775;51.564;5.460;2023-05-22T05:18:06;101186.94;;;13.28;100.00
58473;BME280;44775;51.564;5.460;2023-05-22T05:20:31;101189.28;;;13.31;100.00
58473;BME280;44775;51.564;5.460;2023-05-22T05:22:56;101181.72;;;13.35;100.00
58473;BME280;44775;51.564;5.460;2023-05-22T05:25:22;101190.53;;;13.43;100.00
58473;BME280;44775;51.564;5.460;2023-05-22T05:27:47;101180.16;;;13.40;100.00
58473;BME280;44775;51.564;5.460;2023-05-22T05:30:12;101185.81;;;13.45;100.00
58473;BME280;44775;51.564;5.460;2023-05-22T05:32:38;101184.03;;;13.61;100.00
58473;BME280;44775;51.564;5.460;2023-05-22T05:35:03;101183.94;;;13.69;100.00
58473;BME280;44775;51.564;5.460;2023-05-22T05:37:29;101179.53;;;13.76;100.00
58473;BME280;44775;51.564;5.460;2023-05-22T05:39:54;101169.13;;;13.73;100.00
58473;BME280;44775;51.564;5.460;2023-05-22T05:42:19;101177.19;;;13.73;100.00
58473;BME280;44775;51.564;5.460;2023-05-22T05:44:45;101184.13;;;13.90;100.00
58473;BME280;44775;51.564;5.460;2023-05-22T05:47:10;101180.78;;;14.03;100.00
58473;BME280;44775;51.564;5.460;2023-05-22T05:49:35;101180.53;;;14.13;100.00
58473;BME280;44775;51.564;5.460;2023-05-22T05:52:01;101181.66;;;14.33;100.00
58473;BME280;44775;51.564;5.460;2023-05-22T05:54:26;101181.56;;;14.41;100.00
58473;BME280;44775;51.564;5.460;2023-05-22T05:56:51;101188.25;;;14.60;100.00
58473;BME280;44775;51.564;5.460;2023-05-22T05:59:17;101191.19;;;14.80;100.00
58473;BME280;44775;51.564;5.460;2023-05-22T06:01:44;101189.72;;;14.93;100.00
58473;BME280;44775;51.564;5.460;2023-05-22T06:04:10;101202.56;;;15.12;100.00
58473;BME280;44775;51.564;5.460;2023-05-22T06:06:36;101193.59;;;15.26;100.00
58473;BME280;44775;51.564;5.460;2023-05-22T06:09:04;101202.00;;;15.38;100.00
58473;BME280;44775;51.564;5.460;2023-05-22T06:11:33;101199.66;;;15.50;100.00
58473;BME280;44775;51.564;5.460;2023-05-22T06:14:00;101210.19;;;15.66;100.00
58473;BME280;44775;51.564;5.460;2023-05-22T06:16:27;101211.75;;;15.61;100.00
58473;BME280;44775;51.564;5.460;2023-05-22T06:18:52;101209.16;;;15.67;100.00
58473;BME280;44775;51.564;5.460;2023-05-22T06:21:18;101213.13;;;15.71;100.00
58473;BME280;44775;51.564;5.460;2023-05-22T06:23:47;101213.63;;;15.81;100.00
58473;BME280;44775;51.564;5.460;2023-05-22T06:26:14;101211.06;;;15.95;100.00
58473;BME280;44775;51.564;5.460;2023-05-22T06:28:39;101223.22;;;16.12;100.00
58473;BME280;44775;51.564;5.460;2023-05-22T06:31:04;101216.75;;;16.07;100.00
58473;BME280;44775;51.564;5.460;2023-05-22T06:33:30;101220.56;;;16.19;100.00
58473;BME280;44775;51.564;5.460;2023-05-22T06:35:56;101223.09;;;16.20;100.00
58473;BME280;44775;51.564;5.460;2023-05-22T06:38:21;101228.84;;;16.45;100.00
58473;BME280;44775;51.564;5.460;2023-05-22T06:40:46;101238.25;;;16.56;100.00
58473;BME280;44775;51.564;5.460;2023-05-22T06:43:12;101237.56;;;16.75;100.00
58473;BME280;44775;51.564;5.460;2023-05-22T06:45:37;101238.59;;;16.74;100.00
58473;BME280;44775;51.564;5.460;2023-05-22T06:48:02;101247.34;;;16.83;100.00
58473;BME280;44775;51.564;5.460;2023-05-22T06:50:29;101247.56;;;16.82;100.00
58473;BME280;44775;51.564;5.460;2023-05-22T06:52:54;101246.41;;;16.69;100.00
58473;BME280;44775;51.564;5.460;2023-05-22T06:55:19;101245.97;;;16.66;100.00
58473;BME280;44775;51.564;5.460;2023-05-22T06:57:45;101249.59;;;16.80;93.35
58473;BME280;44775;51.564;5.460;2023-05-22T07:00:10;101247.56;;;16.82;100.00
58473;BME280;44775;51.564;5.460;2023-05-22T07:02:37;101255.47;;;16.90;100.00
58473;BME280;44775;51.564;5.460;2023-05-22T07:05:03;101246.56;;;16.96;100.00
58473;BME280;44775;51.564;5.460;2023-05-22T07:07:29;101255.78;;;17.08;100.00
58473;BME280;44775;51.564;5.460;2023-05-22T07:09:54;101258.75;;;17.27;95.53
58473;BME280;44775;51.564;5.460;2023-05-22T07:12:20;101251.03;;;17.23;100.00
58473;BME280;44775;51.564;5.460;2023-05-22T07:14:50;101255.00;;;17.28;100.00
58473;BME280;44775;51.564;5.460;2023-05-22T07:17:15;101265.84;;;17.41;90.88
58473;BME280;44775;51.564;5.460;2023-05-22T07:19:40;101265.72;;;17.62;90.58
58473;BME280;44775;51.564;5.460;2023-05-22T07:22:06;101265.72;;;17.69;92.84
58473;BME280;44775;51.564;5.460;2023-05-22T07:24:31;101261.56;;;17.73;100.00
58473;BME280;44775;51.564;5.460;2023-05-22T07:26:56;101265.91;;;17.74;100.00
58473;BME280;44775;51.564;5.460;2023-05-22T07:29:21;101257.19;;;17.72;100.00
58473;BME280;44775;51.564;5.460;2023-05-22T07:31:47;101259.97;;;17.85;99.63
58473;BME280;44775;51.564;5.460;2023-05-22T07:34:12;101273.03;;;17.95;91.64
58473;BME280;44775;51.564;5.460;2023-05-22T07:36:37;101270.13;;;17.90;96.28
58473;BME280;44775;51.564;5.460;2023-05-22T07:39:03;101276.59;;;17.96;100.00
58473;BME280;44775;51.564;5.460;2023-05-22T07:41:29;101270.56;;;17.93;91.36
58473;BME280;44775;51.564;5.460;2023-05-22T07:43:54;101282.03;;;18.02;98.29
58473;BME280;44775;51.564;5.460;2023-05-22T07:46:20;101284.91;;;18.14;89.94
58473;BME280;44775;51.564;5.460;2023-05-22T07:48:45;101272.22;;;18.14;93.73
58473;BME280;44775;51.564;5.460;2023-05-22T07:51:10;101294.09;;;18.39;85.30
58473;BME280;44775;51.564;5.460;2023-05-22T07:53:37;101277.41;;;18.42;98.57
58473;BME280;44775;51.564;5.460;2023-05-22T07:56:02;101283.84;;;18.41;96.34
58473;BME280;44775;51.564;5.460;2023-05-22T07:58:28;101284.88;;;18.60;99.62
58473;BME280;44775;51.564;5.460;2023-05-22T08:00:53;101283.84;;;18.55;99.88
58473;BME280;44775;51.564;5.460;2023-05-22T08:03:19;101285.97;;;18.46;100.00
58473;BME280;44775;51.564;5.460;2023-05-22T08:05:45;101274.91;;;18.41;100.00
58473;BME280;44775;51.564;5.460;2023-05-22T08:08:10;101278.84;;;18.65;100.00
58473;BME280;44775;51.564;5.460;2023-05-22T08:10:36;101279.84;;;18.91;97.81
58473;BME280;44775;51.564;5.460;2023-05-22T08:13:01;101295.16;;;19.17;96.84
58473;BME280;44775;51.564;5.460;2023-05-22T08:15:33;101280.31;;;19.26;92.12
58473;BME280;44775;51.564;5.460;2023-05-22T08:17:59;101285.31;;;19.29;95.55
58473;BME280;44775;51.564;5.460;2023-05-22T08:20:24;101282.19;;;19.32;92.62
58473;BME280;44775;51.564;5.460;2023-05-22T08:22:49;101287.78;;;19.37;93.94
58473;BME280;44775;51.564;5.460;2023-05-22T08:25:15;101283.25;;;19.63;91.83
58473;BME280;44775;51.564;5.460;2023-05-22T08:27:40;101286.91;;;19.88;89.47
58473;BME280;44775;51.564;5.460;2023-05-22T08:30:06;101274.81;;;19.84;91.05
58473;BME280;44775;51.564;5.460;2023-05-22T08:32:32;101288.59;;;20.08;90.18
58473;BME280;44775;51.564;5.460;2023-05-22T08:34:57;101287.06;;;20.43;73.86
58473;BME280;44775;51.564;5.460;2023-05-22T08:37:23;101284.63;;;20.79;87.99
58473;BME280;44775;51.564;5.460;2023-05-22T08:39:49;101285.16;;;21.06;85.89
58473;BME280;44775;51.564;5.460;2023-05-22T08:42:14;101286.16;;;20.93;85.29
58473;BME280;44775;51.564;5.460;2023-05-22T08:44:39;101280.53;;;20.51;87.92
58473;BME280;44775;51.564;5.460;2023-05-22T08:47:07;101286.25;;;20.86;84.23
58473;BME280;44775;51.564;5.460;2023-05-22T08:49:38;101284.63;;;21.15;81.81
58473;BME280;44775;51.564;5.460;2023-05-22T08:52:17;101290.00;;;21.71;80.65
58473;BME280;44775;51.564;5.460;2023-05-22T08:54:51;101284.34;;;22.49;79.33
58473;BME280;44775;51.564;5.460;2023-05-22T08:57:18;101289.91;;;22.66;67.27
58473;BME280;44775;51.564;5.460;2023-05-22T08:59:44;101290.59;;;22.97;70.64
58473;BME280;44775;51.564;5.460;2023-05-22T09:02:11;101292.00;;;23.40;66.99
58473;BME280;44775;51.564;5.460;2023-05-22T09:04:36;101298.22;;;23.52;54.98
58473;BME280;44775;51.564;5.460;2023-05-22T09:07:02;101278.00;;;23.65;53.10
58473;BME280;44775;51.564;5.460;2023-05-22T09:09:30;101289.97;;;23.92;66.07
58473;BME280;44775;51.564;5.460;2023-05-22T09:11:55;101293.16;;;24.01;57.73
58473;BME280;44775;51.564;5.460;2023-05-22T09:14:20;101294.78;;;23.85;48.60
58473;BME280;44775;51.564;5.460;2023-05-22T09:16:48;101293.47;;;23.88;62.69
58473;BME280;44775;51.564;5.460;2023-05-22T09:19:14;101291.31;;;23.61;55.42
58473;BME280;44775;51.564;5.460;2023-05-22T09:21:40;101294.31;;;23.60;54.17
58473;BME280;44775;51.564;5.460;2023-05-22T09:24:09;101295.38;;;24.38;62.20
58473;BME280;44775;51.564;5.460;2023-05-22T09:26:35;101286.22;;;24.44;55.94
58473;BME280;44775;51.564;5.460;2023-05-22T09:29:00;101292.19;;;24.41;55.55
58473;BME280;44775;51.564;5.460;2023-05-22T09:31:28;101285.72;;;24.30;60.93
58473;BME280;44775;51.564;5.460;2023-05-22T09:33:54;101289.88;;;23.70;60.12
58473;BME280;44775;51.564;5.460;2023-05-22T09:36:20;101284.28;;;23.65;64.05
58473;BME280;44775;51.564;5.460;2023-05-22T09:38:46;101292.16;;;24.07;53.44
58473;BME280;44775;51.564;5.460;2023-05-22T09:41:11;101283.97;;;24.80;60.49
58473;BME280;44775;51.564;5.460;2023-05-22T09:43:36;101290.44;;;24.73;59.88
58473;BME280;44775;51.564;5.460;2023-05-22T09:46:02;101282.19;;;24.90;59.70
58473;BME280;44775;51.564;5.460;2023-05-22T09:48:33;101289.69;;;25.17;56.62
58473;BME280;44775;51.564;5.460;2023-05-22T09:51:03;101291.19;;;25.52;55.26
58473;BME280;44775;51.564;5.460;2023-05-22T09:53:28;101285.69;;;26.43;48.57
58473;BME280;44775;51.564;5.460;2023-05-22T09:55:56;101280.91;;;27.18;53.53
58473;BME280;44775;51.564;5.460;2023-05-22T09:58:25;101285.03;;;27.26;47.66
58473;BME280;44775;51.564;5.460;2023-05-22T10:00:52;101279.44;;;27.00;48.16
58473;BME280;44775;51.564;5.460;2023-05-22T10:03:20;101285.41;;;27.70;45.72
58473;BME280;44775;51.564;5.460;2023-05-22T10:05:49;101277.44;;;27.64;47.78
58473;BME280;44775;51.564;5.460;2023-05-22T10:08:42;101282.88;;;28.86;44.83
58473;BME280;44775;51.564;5.460;2023-05-22T10:11:09;101282.00;;;29.06;45.38
58473;BME280;44775;51.564;5.460;2023-05-22T10:13:36;101286.72;;;28.90;37.13
58473;BME280;44775;51.564;5.460;2023-05-22T10:16:01;101275.16;;;28.93;43.58
58473;BME280;44775;51.564;5.460;2023-05-22T10:18:29;101289.84;;;28.28;37.71
58473;BME280;44775;51.564;5.460;2023-05-22T10:20:56;101275.59;;;27.90;40.28
58473;BME280;44775;51.564;5.460;2023-05-22T10:23:21;101280.25;;;28.10;41.30
58473;BME280;44775;51.564;5.460;2023-05-22T10:25:47;101280.22;;;28.30;40.69
58473;BME280;44775;51.564;5.460;2023-05-22T10:28:20;101278.75;;;28.84;42.69
58473;BME280;44775;51.564;5.460;2023-05-22T10:31:01;101281.81;;;28.72;44.92
58473;BME280;44775;51.564;5.460;2023-05-22T10:33:57;101277.16;;;29.37;41.47
58473;BME280;44775;51.564;5.460;2023-05-22T10:36:49;101281.34;;;29.30;40.43
58473;BME280;44775;51.564;5.460;2023-05-22T10:39:30;101282.91;;;29.85;40.53
58473;BME280;44775;51.564;5.460;2023-05-22T10:41:58;101278.00;;;30.11;39.64
58473;BME280;44775;51.564;5.460;2023-05-22T10:44:23;101275.97;;;30.27;37.26
58473;BME280;44775;51.564;5.460;2023-05-22T10:46:49;101284.22;;;29.93;36.41
58473;BME280;44775;51.564;5.460;2023-05-22T10:49:20;101283.97;;;30.53;39.96
58473;BME280;44775;51.564;5.460;2023-05-22T10:51:46;101279.59;;;29.83;40.18
58473;BME280;44775;51.564;5.460;2023-05-22T10:54:11;101274.28;;;29.53;41.73
58473;BME280;44775;51.564;5.460;2023-05-22T10:56:37;101265.25;;;28.92;40.60
58473;BME280;44775;51.564;5.460;2023-05-22T10:59:03;101266.84;;;29.63;42.28
58473;BME280;44775;51.564;5.460;2023-05-22T11:01:30;101272.13;;;29.89;42.02
58473;BME280;44775;51.564;5.460;2023-05-22T11:06:45;101267.06;;;28.42;43.58
58473;BME280;44775;51.564;5.460;2023-05-22T11:09:31;101266.50;;;28.25;43.10
58473;BME280;44775;51.564;5.460;2023-05-22T11:12:25;101258.25;;;28.25;45.82
58473;BME280;44775;51.564;5.460;2023-05-22T11:14:53;101256.00;;;28.63;42.91
58473;BME280;44775;51.564;5.460;2023-05-22T11:17:21;101263.50;;;29.17;40.27
58473;BME280;44775;51.564;5.460;2023-05-22T11:20:01;101260.25;;;29.54;39.78
58473;BME280;44775;51.564;5.460;2023-05-22T11:22:39;101248.31;;;29.74;42.29
58473;BME280;44775;51.564;5.460;2023-05-22T11:25:09;101259.75;;;29.86;37.29
58473;BME280;44775;51.564;5.460;2023-05-22T11:27:36;101248.84;;;30.05;40.34
58473;BME280;44775;51.564;5.460;2023-05-22T11:30:03;101255.19;;;30.06;40.19
58473;BME280;44775;51.564;5.460;2023-05-22T11:32:29;101256.56;;;30.38;36.38
58473;BME280;44775;51.564;5.460;2023-05-22T11:34:55;101256.69;;;30.51;40.52
58473;BME280;44775;51.564;5.460;2023-05-22T11:37:22;101255.50;;;31.05;39.55
58473;BME280;44775;51.564;5.460;2023-05-22T11:39:55;101261.13;;;30.76;38.31
58473;BME280;44775;51.564;5.460;2023-05-22T11:42:21;101258.34;;;30.23;40.32
58473;BME280;44775;51.564;5.460;2023-05-22T11:44:46;101256.00;;;29.72;41.93
58473;BME280;44775;51.564;5.460;2023-05-22T11:47:13;101253.31;;;30.30;40.76
58473;BME280;44775;51.564;5.460;2023-05-22T11:49:41;101251.81;;;29.80;41.67
58473;BME280;44775;51.564;5.460;2023-05-22T11:52:08;101251.75;;;29.46;42.28
58473;BME280;44775;51.564;5.460;2023-05-22T11:54:34;101246.50;;;29.49;40.59
58473;BME280;44775;51.564;5.460;2023-05-22T11:57:02;101238.84;;;30.15;41.04
58473;BME280;44775;51.564;5.460;2023-05-22T11:59:28;101240.50;;;30.45;40.43
58473;BME280;44775;51.564;5.460;2023-05-22T12:01:53;101239.25;;;30.32;40.71
58473;BME280;44775;51.564;5.460;2023-05-22T12:04:18;101235.75;;;29.92;41.36
58473;BME280;44775;51.564;5.460;2023-05-22T12:06:44;101243.00;;;30.12;40.88
58473;BME280;44775;51.564;5.460;2023-05-22T12:09:09;101235.84;;;30.40;40.43
58473;BME280;44775;51.564;5.460;2023-05-22T12:11:35;101226.41;;;30.46;38.70
58473;BME280;44775;51.564;5.460;2023-05-22T12:14:04;101225.78;;;30.97;38.94
58473;BME280;44775;51.564;5.460;2023-05-22T12:16:34;101246.41;;;31.62;38.75
58473;BME280;44775;51.564;5.460;2023-05-22T12:19:05;101238.88;;;31.67;38.48
58473;BME280;44775;51.564;5.460;2023-05-22T12:21:30;101241.03;;;31.14;39.23
58473;BME280;44775;51.564;5.460;2023-05-22T12:23:56;101243.88;;;31.27;38.38
58473;BME280;44775;51.564;5.460;2023-05-22T12:26:21;101245.22;;;31.68;37.84
58473;BME280;44775;51.564;5.460;2023-05-22T12:28:47;101243.03;;;31.32;38.50
58473;BME280;44775;51.564;5.460;2023-05-22T12:31:21;101249.47;;;31.22;36.18
58473;BME280;44775;51.564;5.460;2023-05-22T12:33:47;101241.59;;;31.86;35.30
58473;BME280;44775;51.564;5.460;2023-05-22T12:36:13;101242.97;;;31.70;34.53
58473;BME280;44775;51.564;5.460;2023-05-22T12:38:39;101240.78;;;30.91;36.45
58473;BME280;44775;51.564;5.460;2023-05-22T12:41:04;101236.78;;;30.01;37.27
58473;BME280;44775;51.564;5.460;2023-05-22T12:43:30;101233.59;;;29.45;41.53
58473;BME280;44775;51.564;5.460;2023-05-22T12:45:55;101234.47;;;29.79;39.74
58473;BME280;44775;51.564;5.460;2023-05-22T12:48:20;101235.31;;;30.62;38.88
58473;BME280;44775;51.564;5.460;2023-05-22T12:50:47;101228.84;;;31.39;37.88
58473;BME280;44775;51.564;5.460;2023-05-22T12:53:12;101229.03;;;31.61;37.42
58473;BME280;44775;51.564;5.460;2023-05-22T12:55:38;101226.50;;;31.79;37.29
58473;BME280;44775;51.564;5.460;2023-05-22T12:58:04;101224.34;;;31.75;37.44
58473;BME280;44775;51.564;5.460;2023-05-22T13:00:30;101222.16;;;31.02;37.09